Canyonlands National Park, UT

1:51 AM MDT on September 01, 2014 (GMT -0600)
Canon Vista | Change Station
CLOSE
Current Station
Personal Weather Station
Location: Moab, UT
Elevation: 4183 ft
Nearby Weather Stations

Elev 4183 ft 38.56 °N, 109.53 °W | Updated 3 seconds ago

Clear
Clear
64.0 °F
Feels Like 64.0 °F
N
0.0
Wind Variable Wind from SE
Gusts 0.0 mph

Today
High -- | Low -- °F
--% Chance of Precip.
Yesterday
High -- | Low -- °F
Precip. -- in
6:47 AM 7:47 PM
Waxing Crescent, 38% visible
Pressure 29.78 in
Visibility 10.0 miles
Clouds Clear
Dew Point 40 °F
Humidity 41%
Rainfall 0.00 in
Snow Depth Not available.
UV 0 out of 12
Pollen 10.20 out of 12
Air Quality Not available.
Flu Activity Not available.
METAR KCNY 010653Z AUTO 31003KT 10SM CLR 19/M01 A2997 RMK AO2 SLP084 T01941006 403330178

More Conditions Fewer Conditions

Pressure 29.78 in
Visibility 10.0 miles
Clouds Clear
Dew Point 40 °F
Humidity 41%
Rainfall 0.00 in
Snow Depth Not available.
UV 0 out of 12
Pollen 10.20 out of 12
Air Quality Not available.
Flu Activity Not available.
METAR KCNY 010653Z AUTO 31003KT 10SM CLR 19/M01 A2997 RMK AO2 SLP084 T01941006 403330178

More Conditions Fewer Conditions

10-Day Weather Forecast

Almanac

Astronomy

Sep. 01, 2014 Rise Set
Actual Time 6:47 AM MDT 7:47 PM MDT
Civil Twilight 6:20 AM MDT 8:14 PM MDT
Nautical Twilight 5:47 AM MDT 8:47 PM MDT
Astronomical Twilight 5:14 AM MDT 9:20 PM MDT
Moon 1:31 PM MDT 11:56 PM MDT
Length of Visible Light 13h 54m
Length of Day
13h 00m
Tomorrow will be 2m 23s shorter.
Waxing Crescent, 38% of the Moon is Illuminated
Today
Waxing Crescent
Sep 2
First Quarter
Sep 8
Full
Sep 15
Last Quarter
Sep 24
New

Today's Extremes

State Highs State Lows

Community

WunderPhotos

Upload Photos

1,749,154 photos uploaded!

Nearby

Snow Depth

Station Depth Elevation
Donkey Reservoir 0 in 9800 ft
Buck Flat 0 in 9800 ft
Black Flat-U.M. Creek 0 in 9400 ft
Red Pine Ridge 0 in 9200 ft
Seeley Creek 0 in 10000 ft

Earthquake Activity

City Distance Mag. Time & Date
No recent earthquake activity has been reported nearby.
Minimum magnitude displayed is 2.5.

Coastal Water Temperatures

Place Temperature
No Stations Reporting

Nearby Weather Stations